ZXP01 EHAM-EHLE
Flight info
| Callsign | ZXP01 |
|---|---|
| Flight time | 0h 47m |
| Altitude | 1000 |
| Route | EHAMV DCT VOLENDAM DCT EHHA DCT VOLENDAM DCT EHLEM |
| Aircraft | EC35/L-SGRYB/S |
Departure
| Time | 2026-04-30 18:10 |
|---|---|
| Airport | Amsterdam Airport Schiphol (EHAM) |
Arrival
| Time | 2026-04-30 18:57 |
|---|---|
| Airport | Lelystad Airport (EHLE) |
| Time | Latitude | Longitude | Altitude | Speed | Heading |
|---|---|---|---|---|---|
| 2026-04-30 17:55 | 52.31426 | 4.80663 | -9 ft | 0 kts | 219° |
| 2026-04-30 18:06 | 52.31393 | 4.80633 | -10 ft | 5 kts | 219° |
| 2026-04-30 18:07 | 52.31146 | 4.80286 | -4 ft | 13 kts | 224° |
| 2026-04-30 18:08 | 52.31176 | 4.80011 | -3 ft | 8 kts | 345° |
| 2026-04-30 18:09 | 52.31456 | 4.80849 | 284 ft | 75 kts | 123° |
| 2026-04-30 18:10 | 52.29401 | 4.80782 | 854 ft | 89 kts | 128° |
| 2026-04-30 18:11 | 52.27848 | 4.83751 | 994 ft | 89 kts | 115° |
| 2026-04-30 18:11 | 52.26943 | 4.86448 | 965 ft | 88 kts | 117° |
| 2026-04-30 18:12 | 52.26013 | 4.89001 | 1032 ft | 87 kts | 120° |
| 2026-04-30 18:13 | 52.25425 | 4.90735 | 1074 ft | 87 kts | 116° |
| 2026-04-30 18:13 | 52.24582 | 4.93077 | 1030 ft | 91 kts | 121° |
| 2026-04-30 18:14 | 52.23664 | 4.94968 | 995 ft | 91 kts | 124° |
| 2026-04-30 18:15 | 52.23484 | 4.97546 | 999 ft | 102 kts | 42° |
| 2026-04-30 18:15 | 52.25333 | 4.99373 | 996 ft | 106 kts | 40° |
| 2026-04-30 18:16 | 52.26908 | 4.99544 | 997 ft | 121 kts | 2° |
| 2026-04-30 18:16 | 52.28566 | 4.99257 | 998 ft | 120 kts | 1° |
| 2026-04-30 18:17 | 52.29408 | 4.99131 | 997 ft | 121 kts | 2° |
| 2026-04-30 18:17 | 52.30248 | 4.98995 | 992 ft | 121 kts | 1° |
| 2026-04-30 18:17 | 52.31759 | 4.99533 | 932 ft | 110 kts | 40° |
| 2026-04-30 18:18 | 52.32416 | 5.00176 | 904 ft | 111 kts | 40° |
| 2026-04-30 18:18 | 52.33057 | 5.00806 | 936 ft | 106 kts | 39° |
| 2026-04-30 18:18 | 52.33794 | 5.01133 | 945 ft | 114 kts | 20° |
| 2026-04-30 18:18 | 52.34575 | 5.01396 | 971 ft | 110 kts | 21° |
| 2026-04-30 18:19 | 52.35302 | 5.01655 | 1072 ft | 105 kts | 24° |
| 2026-04-30 18:19 | 52.36003 | 5.01949 | 1152 ft | 105 kts | 27° |
| 2026-04-30 18:19 | 52.36714 | 5.02311 | 1165 ft | 109 kts | 29° |
| 2026-04-30 18:19 | 52.37442 | 5.02720 | 1135 ft | 112 kts | 30° |
| 2026-04-30 18:20 | 52.38188 | 5.03155 | 1050 ft | 114 kts | 28° |
| 2026-04-30 18:20 | 52.38947 | 5.03566 | 969 ft | 115 kts | 26° |
| 2026-04-30 18:20 | 52.39725 | 5.03950 | 916 ft | 115 kts | 23° |
| 2026-04-30 18:20 | 52.40498 | 5.04252 | 887 ft | 117 kts | 16° |
| 2026-04-30 18:21 | 52.41311 | 5.04257 | 937 ft | 118 kts | 5° |
| 2026-04-30 18:21 | 52.42126 | 5.04122 | 978 ft | 115 kts | 1° |
| 2026-04-30 18:21 | 52.42907 | 5.03932 | 1031 ft | 115 kts | 360° |
| 2026-04-30 18:21 | 52.43705 | 5.03729 | 1071 ft | 117 kts | 359° |
| 2026-04-30 18:22 | 52.44512 | 5.03419 | 1103 ft | 123 kts | 342° |
| 2026-04-30 18:22 | 52.45497 | 5.01056 | 1045 ft | 135 kts | 270° |
| 2026-04-30 18:22 | 52.45439 | 4.99525 | 983 ft | 134 kts | 249° |
| 2026-04-30 18:23 | 52.45235 | 4.98061 | 976 ft | 130 kts | 248° |
| 2026-04-30 18:23 | 52.45030 | 4.96638 | 1011 ft | 126 kts | 247° |
| 2026-04-30 18:23 | 52.44865 | 4.95221 | 1048 ft | 127 kts | 252° |
| 2026-04-30 18:23 | 52.44725 | 4.93790 | 1060 ft | 128 kts | 253° |
| 2026-04-30 18:24 | 52.44616 | 4.90814 | 1018 ft | 135 kts | 268° |
| 2026-04-30 18:24 | 52.44756 | 4.89282 | 983 ft | 136 kts | 277° |
| 2026-04-30 18:24 | 52.45033 | 4.87801 | 955 ft | 136 kts | 284° |
| 2026-04-30 18:25 | 52.45291 | 4.86341 | 945 ft | 132 kts | 270° |
| 2026-04-30 18:25 | 52.44360 | 4.85064 | 925 ft | 88 kts | 146° |
| 2026-04-30 18:25 | 52.43808 | 4.85514 | 876 ft | 86 kts | 140° |
| 2026-04-30 18:26 | 52.42896 | 4.86627 | 805 ft | 80 kts | 145° |
| 2026-04-30 18:26 | 52.42355 | 4.86880 | 778 ft | 86 kts | 181° |
| 2026-04-30 18:26 | 52.41791 | 4.86485 | 824 ft | 91 kts | 210° |
| 2026-04-30 18:27 | 52.40662 | 4.85210 | 707 ft | 101 kts | 215° |
| 2026-04-30 18:27 | 52.40119 | 4.84440 | 591 ft | 105 kts | 231° |
| 2026-04-30 18:28 | 52.40002 | 4.82189 | 448 ft | 98 kts | 314° |
| 2026-04-30 18:28 | 52.40398 | 4.81333 | 401 ft | 93 kts | 319° |
| 2026-04-30 18:28 | 52.41048 | 4.80284 | 242 ft | 31 kts | 14° |
| 2026-04-30 18:29 | 52.41226 | 4.80364 | 146 ft | 20 kts | 12° |
| 2026-04-30 18:29 | 52.41445 | 4.80475 | 17 ft | 4 kts | 7° |
| 2026-04-30 18:30 | 52.41462 | 4.80484 | 4 ft | 0 kts | 19° |
| 2026-04-30 18:32 | 52.41464 | 4.80482 | 10 ft | 1 kts | 10° |
| 2026-04-30 18:32 | 52.41391 | 4.80429 | 87 ft | 12 kts | 14° |
| 2026-04-30 18:33 | 52.41331 | 4.80415 | 176 ft | 4 kts | 16° |
| 2026-04-30 18:33 | 52.41673 | 4.80838 | 399 ft | 65 kts | 74° |
| 2026-04-30 18:33 | 52.41341 | 4.81473 | 455 ft | 96 kts | 155° |
| 2026-04-30 18:34 | 52.40669 | 4.81628 | 634 ft | 101 kts | 165° |
| 2026-04-30 18:34 | 52.39896 | 4.83075 | 826 ft | 107 kts | 83° |
| 2026-04-30 18:34 | 52.40138 | 4.84260 | 870 ft | 117 kts | 59° |
| 2026-04-30 18:35 | 52.40747 | 4.85211 | 899 ft | 122 kts | 45° |
| 2026-04-30 18:35 | 52.41392 | 4.86132 | 890 ft | 125 kts | 45° |
| 2026-04-30 18:35 | 52.42088 | 4.87011 | 926 ft | 131 kts | 35° |
| 2026-04-30 18:36 | 52.43916 | 4.86078 | 981 ft | 147 kts | 327° |
| 2026-04-30 18:36 | 52.44743 | 4.85123 | 1019 ft | 148 kts | 327° |
| 2026-04-30 18:36 | 52.46604 | 4.84899 | 1030 ft | 130 kts | 19° |
| 2026-04-30 18:37 | 52.47461 | 4.85392 | 989 ft | 129 kts | 31° |
| 2026-04-30 18:37 | 52.48073 | 4.86340 | 1010 ft | 117 kts | 58° |
| 2026-04-30 18:37 | 52.48530 | 4.87420 | 1005 ft | 118 kts | 58° |
| 2026-04-30 18:37 | 52.49065 | 4.88502 | 918 ft | 125 kts | 53° |
| 2026-04-30 18:38 | 52.49666 | 4.89514 | 943 ft | 120 kts | 50° |
| 2026-04-30 18:38 | 52.50049 | 4.90667 | 934 ft | 113 kts | 76° |
| 2026-04-30 18:38 | 52.50035 | 4.91920 | 967 ft | 108 kts | 104° |
| 2026-04-30 18:38 | 52.49781 | 4.93044 | 1039 ft | 106 kts | 107° |
| 2026-04-30 18:39 | 52.49532 | 4.94229 | 963 ft | 112 kts | 106° |
| 2026-04-30 18:39 | 52.49507 | 4.95512 | 947 ft | 114 kts | 88° |
| 2026-04-30 18:39 | 52.49526 | 4.96792 | 909 ft | 115 kts | 86° |
| 2026-04-30 18:39 | 52.49568 | 4.98103 | 879 ft | 115 kts | 85° |
| 2026-04-30 18:40 | 52.49510 | 4.99381 | 873 ft | 111 kts | 96° |
| 2026-04-30 18:40 | 52.49428 | 5.00640 | 865 ft | 112 kts | 95° |
| 2026-04-30 18:40 | 52.49347 | 5.01874 | 985 ft | 105 kts | 96° |
| 2026-04-30 18:40 | 52.49258 | 5.03063 | 998 ft | 108 kts | 95° |
| 2026-04-30 18:41 | 52.49183 | 5.04310 | 1006 ft | 110 kts | 95° |
| 2026-04-30 18:41 | 52.49108 | 5.05556 | 1006 ft | 110 kts | 95° |
| 2026-04-30 18:41 | 52.49037 | 5.06808 | 1002 ft | 110 kts | 95° |
| 2026-04-30 18:41 | 52.48961 | 5.08078 | 1005 ft | 110 kts | 94° |
| 2026-04-30 18:42 | 52.48872 | 5.09324 | 1002 ft | 110 kts | 95° |
| 2026-04-30 18:42 | 52.48718 | 5.11839 | 1000 ft | 110 kts | 95° |
| 2026-04-30 18:42 | 52.48644 | 5.13089 | 1009 ft | 110 kts | 96° |
| 2026-04-30 18:45 | 52.48327 | 5.25621 | 1012 ft | 116 kts | 74° |
| 2026-04-30 18:45 | 52.48607 | 5.26894 | 937 ft | 119 kts | 72° |
| 2026-04-30 18:45 | 52.48902 | 5.28144 | 997 ft | 115 kts | 72° |
| 2026-04-30 18:46 | 52.49193 | 5.29364 | 1009 ft | 116 kts | 70° |
| 2026-04-30 18:46 | 52.49469 | 5.30593 | 1012 ft | 115 kts | 73° |
| 2026-04-30 18:46 | 52.49755 | 5.31829 | 1005 ft | 114 kts | 71° |
| 2026-04-30 18:46 | 52.50033 | 5.33043 | 1022 ft | 116 kts | 73° |
| 2026-04-30 18:47 | 52.50323 | 5.34269 | 1011 ft | 114 kts | 71° |
| 2026-04-30 18:47 | 52.50611 | 5.35508 | 1018 ft | 117 kts | 72° |
| 2026-04-30 18:47 | 52.50909 | 5.36734 | 1014 ft | 116 kts | 71° |
| 2026-04-30 18:47 | 52.51202 | 5.37976 | 1007 ft | 116 kts | 73° |
| 2026-04-30 18:48 | 52.51492 | 5.39208 | 1011 ft | 116 kts | 72° |
| 2026-04-30 18:48 | 52.51786 | 5.40451 | 1012 ft | 117 kts | 71° |
| 2026-04-30 18:48 | 52.52074 | 5.41690 | 1006 ft | 115 kts | 69° |
| 2026-04-30 18:48 | 52.52475 | 5.42826 | 1023 ft | 117 kts | 57° |
| 2026-04-30 18:49 | 52.53049 | 5.43773 | 1069 ft | 126 kts | 43° |
| 2026-04-30 18:49 | 52.53785 | 5.44568 | 1042 ft | 128 kts | 36° |
| 2026-04-30 18:49 | 52.54507 | 5.45431 | 1001 ft | 126 kts | 48° |
| 2026-04-30 18:49 | 52.54926 | 5.46615 | 980 ft | 114 kts | 78° |
| 2026-04-30 18:50 | 52.55010 | 5.47818 | 943 ft | 100 kts | 95° |
| 2026-04-30 18:50 | 52.54985 | 5.48887 | 929 ft | 89 kts | 95° |
| 2026-04-30 18:50 | 52.54940 | 5.49875 | 914 ft | 84 kts | 101° |
| 2026-04-30 18:50 | 52.54852 | 5.50801 | 929 ft | 79 kts | 107° |
| 2026-04-30 18:51 | 52.54754 | 5.51681 | 952 ft | 76 kts | 115° |
| 2026-04-30 18:51 | 52.54355 | 5.52291 | 895 ft | 83 kts | 146° |
| 2026-04-30 18:51 | 52.53798 | 5.52635 | 859 ft | 89 kts | 161° |
| 2026-04-30 18:51 | 52.53174 | 5.52825 | 851 ft | 90 kts | 165° |
| 2026-04-30 18:52 | 52.52537 | 5.52862 | 873 ft | 91 kts | 174° |
| 2026-04-30 18:52 | 52.51921 | 5.52842 | 934 ft | 88 kts | 175° |
| 2026-04-30 18:52 | 52.51299 | 5.52739 | 979 ft | 89 kts | 177° |
| 2026-04-30 18:52 | 52.50682 | 5.52615 | 1018 ft | 89 kts | 177° |
| 2026-04-30 18:53 | 52.50071 | 5.52396 | 1033 ft | 94 kts | 194° |
| 2026-04-30 18:53 | 52.49441 | 5.51911 | 973 ft | 102 kts | 201° |
| 2026-04-30 18:53 | 52.48847 | 5.51231 | 921 ft | 108 kts | 217° |
| 2026-04-30 18:53 | 52.48344 | 5.50295 | 850 ft | 109 kts | 229° |
| 2026-04-30 18:54 | 52.47912 | 5.49285 | 794 ft | 107 kts | 230° |
| 2026-04-30 18:54 | 52.47410 | 5.48468 | 718 ft | 91 kts | 180° |
| 2026-04-30 18:54 | 52.46951 | 5.48847 | 820 ft | 68 kts | 138° |
| 2026-04-30 18:54 | 52.46576 | 5.49316 | 901 ft | 70 kts | 137° |
| 2026-04-30 18:55 | 52.46163 | 5.49821 | 938 ft | 76 kts | 146° |
| 2026-04-30 18:55 | 52.45249 | 5.48586 | 1006 ft | 101 kts | 228° |
| 2026-04-30 18:55 | 52.44844 | 5.47643 | 1024 ft | 101 kts | 227° |
| 2026-04-30 18:56 | 52.43852 | 5.46550 | 883 ft | 89 kts | 155° |
| 2026-04-30 18:56 | 52.43403 | 5.47189 | 612 ft | 88 kts | 110° |
| 2026-04-30 18:56 | 52.43525 | 5.48144 | 393 ft | 85 kts | 61° |
| 2026-04-30 18:57 | 52.44193 | 5.49432 | 188 ft | 71 kts | 52° |
| 2026-04-30 18:57 | 52.44500 | 5.49983 | 103 ft | 60 kts | 51° |
| 2026-04-30 18:57 | 52.44752 | 5.50444 | 31 ft | 47 kts | 49° |
| 2026-04-30 18:58 | 52.45026 | 5.50925 | 7 ft | 13 kts | 43° |
| 2026-04-30 18:58 | 52.45082 | 5.51027 | 0 ft | 11 kts | 49° |
| 2026-04-30 18:58 | 52.45117 | 5.51114 | 5 ft | 8 kts | 101° |
| 2026-04-30 18:59 | 52.45063 | 5.51227 | 0 ft | 2 kts | 133° |
| 2026-04-30 19:00 | 52.45057 | 5.51241 | -2 ft | 0 kts | 131° |
| 2026-04-30 19:00 | 52.45053 | 5.51245 | -3 ft | 1 kts | 133° |
| 2026-04-30 19:00 | 52.45147 | 5.51518 | 8 ft | 16 kts | 46° |
| 2026-04-30 19:01 | 52.45250 | 5.51722 | -3 ft | 9 kts | 50° |
| 2026-04-30 19:01 | 52.45291 | 5.51795 | -1 ft | 6 kts | 46° |
| 2026-04-30 19:02 | 52.45290 | 5.51872 | -4 ft | 3 kts | 48° |
| 2026-04-30 19:02 | 52.45288 | 5.51874 | -7 ft | 0 kts | 47° |